Terminal Aerodrome Forecast
Issued by NWS

Home | Current Version | Previous Version | Text Only | Print | Product List | Glossary On
Versions: 1 2 3 4 5 6 7 8 9 10 11 12
000
FTAK31 PAFA 191740
TAFAOR
TAF
PAOR 191740Z 1918/2018 11003KT P6SM SCT080 OVC150
     FM192100 11003KT P6SM VCTS SCT070CB BKN120
     FM200500 00000KT P6SM VCFG SCT005 BKN090=

USA.gov is the U.S. government's official web portal to all federal, state and local government web resources and services.